createdAt,value
2023-05-23T00:00:19.029Z,62.07
2023-05-23T00:02:47.143Z,62.44
2023-05-23T00:05:15.615Z,62.63
2023-05-23T00:07:42.416Z,62.75
2023-05-23T00:10:09.479Z,62.59
2023-05-23T00:12:37.730Z,62.58
2023-05-23T00:15:04.744Z,62.52
2023-05-23T00:17:31.466Z,62.49
2023-05-23T00:19:58.116Z,62.99
2023-05-23T00:22:24.981Z,62.97
2023-05-23T00:24:51.652Z,62.77
2023-05-23T00:27:18.252Z,62.67
2023-05-23T00:29:44.861Z,62.35
2023-05-23T00:32:12.347Z,62.27
2023-05-23T00:34:38.940Z,61.84
2023-05-23T00:37:05.569Z,61.74
2023-05-23T00:39:32.250Z,61.57
2023-05-23T00:41:58.906Z,61.50
2023-05-23T00:44:25.586Z,61.81
2023-05-23T00:46:57.798Z,61.80
2023-05-23T00:49:27.069Z,61.60
2023-05-23T00:51:54.030Z,61.39
2023-05-23T00:54:51.955Z,61.29
2023-05-23T00:57:18.619Z,61.57
2023-05-23T00:59:46.847Z,61.25
2023-05-23T01:02:13.924Z,61.58
2023-05-23T01:08:40.880Z,61.43
2023-05-23T01:11:18.834Z,61.35
2023-05-23T01:14:01.008Z,61.61
2023-05-23T01:16:48.624Z,62.06
2023-05-23T01:19:42.593Z,62.12
2023-05-23T01:22:22.626Z,62.16
2023-05-23T01:25:06.257Z,62.28
2023-05-23T01:27:53.084Z,61.79
2023-05-23T01:30:21.249Z,61.58
2023-05-23T01:32:50.785Z,61.65
2023-05-23T01:35:27.718Z,62.35
2023-05-23T02:10:23.974Z,62.96
2023-05-23T02:12:50.746Z,62.77
2023-05-23T02:15:17.543Z,62.92
2023-05-23T02:17:44.264Z,62.90
2023-05-23T02:20:11.237Z,62.72
2023-05-23T02:22:38.716Z,63.30
2023-05-23T02:25:06.132Z,63.57
2023-05-23T02:27:32.810Z,63.63
2023-05-23T02:29:59.465Z,63.65
2023-05-23T02:32:26.334Z,63.26
2023-05-23T02:34:54.492Z,63.73
2023-05-23T02:37:22.320Z,63.86
2023-05-23T02:39:48.929Z,63.54
2023-05-23T02:42:16.202Z,63.35
2023-05-23T02:44:42.826Z,64.01
2023-05-23T02:47:09.516Z,63.83
2023-05-23T02:49:36.205Z,63.82
2023-05-23T02:52:02.930Z,63.37
2023-05-23T02:54:29.555Z,63.94
2023-05-23T02:56:56.894Z,64.09
2023-05-23T02:59:23.604Z,64.61
2023-05-23T03:01:50.345Z,65.10
2023-05-23T03:04:16.986Z,65.24
2023-05-23T03:06:44.984Z,65.36
2023-05-23T03:09:11.761Z,65.61
2023-05-23T03:11:38.470Z,65.19
2023-05-23T03:14:05.141Z,65.19
2023-05-23T03:16:31.978Z,65.32
2023-05-23T03:18:58.890Z,65.55
2023-05-23T03:21:25.608Z,65.32
2023-05-23T03:23:52.367Z,65.44
2023-05-23T03:26:19.638Z,65.23
2023-05-23T03:28:46.394Z,65.18
2023-05-23T03:31:12.998Z,65.13
2023-05-23T03:33:40.655Z,65.39
2023-05-23T03:36:08.202Z,65.54
2023-05-23T03:38:35.035Z,65.58
2023-05-23T03:41:01.712Z,65.50
2023-05-23T03:43:28.363Z,65.99
2023-05-23T03:45:54.987Z,66.03
2023-05-23T03:48:21.602Z,65.81
2023-05-23T03:50:48.338Z,65.51
2023-05-23T03:53:15.041Z,65.59
2023-05-23T03:55:42.705Z,65.51
2023-05-23T03:58:09.710Z,65.93
2023-05-23T04:00:36.574Z,66.04
2023-05-23T04:03:03.401Z,66.00
2023-05-23T04:05:30.266Z,66.10
2023-05-23T04:07:57.106Z,66.06
2023-05-23T04:10:24.020Z,65.94
2023-05-23T04:27:22.372Z,66.41
2023-05-23T04:29:49.148Z,66.03
2023-05-23T04:32:18.449Z,65.75
2023-05-23T04:34:45.263Z,65.70
2023-05-23T04:37:12.309Z,64.96
2023-05-23T04:39:38.885Z,65.16
2023-05-23T04:47:24.757Z,64.65
2023-05-23T04:49:59.784Z,63.82
2023-05-23T04:58:10.922Z,62.88
2023-05-23T05:00:37.568Z,62.66
2023-05-23T05:03:04.273Z,62.41
2023-05-23T05:05:30.908Z,62.18
2023-05-23T05:07:57.612Z,62.41
2023-05-23T05:10:24.206Z,61.81
2023-05-23T05:12:50.801Z,61.30
2023-05-23T05:15:18.178Z,60.92
2023-05-23T05:17:46.456Z,60.65
2023-05-23T05:20:15.547Z,60.89
2023-05-23T05:22:43.173Z,60.54
2023-05-23T05:25:11.118Z,60.18
2023-05-23T05:27:38.548Z,59.71
2023-05-23T05:30:28.745Z,59.82
2023-05-23T05:32:58.235Z,58.50
2023-05-23T05:35:24.993Z,58.49
2023-05-23T05:37:57.668Z,57.42
2023-05-23T05:40:24.673Z,57.53
2023-05-23T05:42:51.649Z,56.89
2023-05-23T05:45:18.296Z,56.76
2023-05-23T05:47:45.896Z,56.14
2023-05-23T05:55:29.037Z,55.69
2023-05-23T05:57:55.861Z,55.50
2023-05-23T06:00:22.664Z,55.40
2023-05-23T06:02:52.694Z,54.84
2023-05-23T06:05:19.365Z,54.73
2023-05-23T06:07:48.793Z,54.22
2023-05-23T06:10:16.213Z,53.35
2023-05-23T06:12:43.072Z,52.65
2023-05-23T06:15:10.108Z,53.07
2023-05-23T06:17:39.561Z,52.62
2023-05-23T06:30:54.087Z,50.64
2023-05-23T06:33:20.977Z,51.32
2023-05-23T06:35:47.603Z,51.33
2023-05-23T06:38:15.815Z,50.09
2023-05-23T06:40:53.244Z,50.03
2023-05-23T06:43:19.878Z,51.21
2023-05-23T06:45:50.443Z,49.19
2023-05-23T06:56:09.060Z,49.23
2023-05-23T06:58:35.769Z,49.42
2023-05-23T07:01:02.456Z,49.51
2023-05-23T07:03:29.122Z,48.66
2023-05-23T07:05:55.911Z,48.21
2023-05-23T07:08:22.531Z,49.61
2023-05-23T07:10:49.456Z,48.77
2023-05-23T07:13:16.087Z,50.15
2023-05-23T07:15:45.771Z,49.36
2023-05-23T07:18:22.486Z,48.39
2023-05-23T07:23:26.064Z,47.79
2023-05-23T07:31:16.173Z,47.66
2023-05-23T07:33:42.935Z,47.63
2023-05-23T07:36:10.429Z,47.40
2023-05-23T07:42:39.910Z,47.65
2023-05-23T07:45:07.093Z,48.07
2023-05-23T07:47:33.806Z,47.71
2023-05-23T07:50:02.320Z,47.29
2023-05-23T07:52:32.586Z,47.48
2023-05-23T07:54:59.926Z,47.64
2023-05-23T07:57:41.246Z,48.03
2023-05-23T08:00:10.026Z,48.64
2023-05-23T08:02:36.689Z,49.11
2023-05-23T08:05:03.425Z,46.92
2023-05-23T08:11:35.881Z,48.45
2023-05-23T08:14:02.504Z,49.16
2023-05-23T08:16:29.087Z,48.28
2023-05-23T08:18:55.958Z,47.95
2023-05-23T08:21:23.832Z,47.86
2023-05-23T08:23:50.684Z,48.45
2023-05-23T08:26:17.360Z,48.39
2023-05-23T08:28:43.936Z,49.45
2023-05-23T08:31:11.610Z,48.24
2023-05-23T08:33:40.700Z,47.64
2023-05-23T08:36:07.469Z,46.66
2023-05-23T08:38:34.102Z,46.94
2023-05-23T08:41:02.134Z,46.87
2023-05-23T08:43:29.637Z,47.11
2023-05-23T08:45:57.239Z,45.72
2023-05-23T08:48:27.126Z,46.82
2023-05-23T08:50:53.778Z,46.79
2023-05-23T08:53:23.542Z,47.13
2023-05-23T08:55:55.696Z,46.38
2023-05-23T08:58:24.838Z,46.31
2023-05-23T09:00:53.777Z,46.68
2023-05-23T09:03:21.187Z,46.43
2023-05-23T09:05:51.681Z,46.95
2023-05-23T09:08:19.232Z,46.06
2023-05-23T09:10:46.056Z,44.77
2023-05-23T09:13:12.652Z,45.35
2023-05-23T09:15:39.382Z,45.68
2023-05-23T09:18:12.252Z,44.94
2023-05-23T09:20:44.623Z,44.44
2023-05-23T09:23:13.932Z,46.39
2023-05-23T09:25:47.235Z,45.80
2023-05-23T09:28:14.002Z,45.02
2023-05-23T09:30:43.115Z,45.63
2023-05-23T09:33:09.721Z,44.09
2023-05-23T09:35:39.126Z,44.75
2023-05-23T09:38:08.181Z,43.74
2023-05-23T09:40:35.091Z,43.31
2023-05-23T09:43:31.785Z,44.09
2023-05-23T09:57:56.793Z,42.84
2023-05-23T10:00:25.153Z,42.26
2023-05-23T10:03:11.119Z,41.44
2023-05-23T10:05:47.117Z,42.73
2023-05-23T10:08:29.883Z,41.92
2023-05-23T10:10:56.406Z,40.53
2023-05-23T10:13:26.974Z,40.61
2023-05-23T10:16:24.341Z,42.18
2023-05-23T10:18:58.567Z,40.70
2023-05-23T10:21:36.146Z,39.30
2023-05-23T10:24:04.661Z,39.92
2023-05-23T10:26:31.861Z,41.73
2023-05-23T10:29:02.458Z,41.85
2023-05-23T10:31:30.140Z,41.43
2023-05-23T10:34:08.738Z,42.25
2023-05-23T10:36:53.584Z,41.88
2023-05-23T10:39:41.773Z,40.03
2023-05-23T10:42:15.710Z,40.63
2023-05-23T10:44:42.409Z,40.11
2023-05-23T10:47:09.376Z,39.04
2023-05-23T10:49:46.570Z,40.67
2023-05-23T10:52:19.112Z,40.97
2023-05-23T10:54:52.536Z,41.03
2023-05-23T10:57:21.346Z,40.42
2023-05-23T10:59:51.266Z,38.92
2023-05-23T11:02:28.649Z,38.10
2023-05-23T11:05:24.755Z,39.32
2023-05-23T11:08:08.866Z,38.72
2023-05-23T11:10:55.654Z,37.41
2023-05-23T11:13:23.186Z,37.87
2023-05-23T11:15:50.568Z,39.02
2023-05-23T11:18:23.478Z,37.25
2023-05-23T11:20:54.283Z,38.52
2023-05-23T11:23:22.129Z,37.50
2023-05-23T11:25:53.640Z,38.46
2023-05-23T11:28:20.576Z,38.31
2023-05-23T11:30:51.094Z,38.89
2023-05-23T11:33:18.722Z,39.42
2023-05-23T11:35:49.753Z,40.17
2023-05-23T11:38:17.091Z,38.97
2023-05-23T11:40:46.593Z,40.10
2023-05-23T11:43:16.986Z,39.05
2023-05-23T11:45:44.218Z,38.00
2023-05-23T11:48:12.736Z,38.79
2023-05-23T11:50:50.514Z,39.23
2023-05-23T11:53:21.004Z,39.86
2023-05-23T11:55:55.649Z,38.92
2023-05-23T11:58:23.247Z,39.76
2023-05-23T12:00:49.969Z,39.60
2023-05-23T12:03:16.881Z,39.75
2023-05-23T12:05:45.575Z,39.39
2023-05-23T12:08:14.683Z,39.48
2023-05-23T12:10:57.386Z,39.79
2023-05-23T12:13:26.377Z,38.04
2023-05-23T12:15:58.628Z,36.95
2023-05-23T12:18:29.392Z,36.29
2023-05-23T12:21:00.170Z,36.50
2023-05-23T12:23:28.122Z,37.12
2023-05-23T12:25:56.560Z,37.04
2023-05-23T12:28:36.385Z,36.58
2023-05-23T12:31:19.234Z,37.22
2023-05-23T12:33:48.268Z,37.33
2023-05-23T12:36:23.187Z,38.58
2023-05-23T12:38:50.147Z,35.18
2023-05-23T12:41:19.891Z,34.68
2023-05-23T12:43:54.594Z,34.56
2023-05-23T12:46:22.194Z,36.31
2023-05-23T12:48:48.884Z,37.20
2023-05-23T12:51:16.209Z,35.20
2023-05-23T12:53:43.325Z,35.71
2023-05-23T12:56:09.916Z,36.90
2023-05-23T12:58:36.718Z,36.79
2023-05-23T13:01:03.868Z,36.57
2023-05-23T13:03:31.456Z,37.57
2023-05-23T13:05:58.590Z,37.30
2023-05-23T13:08:27.483Z,35.98
2023-05-23T13:10:54.342Z,35.24
2023-05-23T13:13:21.115Z,34.98
2023-05-23T13:15:51.659Z,36.22
2023-05-23T13:18:19.812Z,36.91
2023-05-23T13:20:46.874Z,35.79
2023-05-23T13:23:13.942Z,35.15
2023-05-23T13:25:41.264Z,35.22
2023-05-23T13:28:08.379Z,34.76
2023-05-23T13:30:34.975Z,36.83
2023-05-23T13:33:01.927Z,36.00
2023-05-23T13:35:28.900Z,36.50
2023-05-23T13:37:55.619Z,35.95
2023-05-23T13:40:23.416Z,35.04
2023-05-23T13:42:51.490Z,35.51
2023-05-23T13:45:19.402Z,37.08
2023-05-23T13:47:46.744Z,35.98
2023-05-23T13:50:13.627Z,36.21
2023-05-23T13:52:44.092Z,36.48
2023-05-23T13:58:06.091Z,36.56
2023-05-23T14:00:32.755Z,37.11
2023-05-23T14:02:59.383Z,37.12
2023-05-23T14:05:26.045Z,36.87
2023-05-23T14:07:53.234Z,36.23
2023-05-23T14:10:19.999Z,35.47
2023-05-23T14:13:58.509Z,36.05
2023-05-23T14:16:43.540Z,34.64
2023-05-23T14:19:10.478Z,35.03
2023-05-23T14:21:37.842Z,36.12
2023-05-23T14:24:04.682Z,36.88
2023-05-23T14:26:50.232Z,37.00
2023-05-23T14:29:16.828Z,36.04
2023-05-23T14:31:43.444Z,36.25
2023-05-23T14:34:10.097Z,36.52
2023-05-23T14:36:37.103Z,36.18
2023-05-23T14:39:05.555Z,37.62
2023-05-23T14:41:51.198Z,36.93
2023-05-23T14:44:17.831Z,36.55
2023-05-23T14:46:48.467Z,36.45
2023-05-23T14:49:18.585Z,36.98
2023-05-23T14:55:38.404Z,37.25
2023-05-23T14:58:06.356Z,35.57
2023-05-23T15:00:33.304Z,36.19
2023-05-23T15:02:59.965Z,36.49
2023-05-23T15:05:26.528Z,36.77
2023-05-23T15:07:53.578Z,36.03
2023-05-23T15:12:55.652Z,36.17
2023-05-23T15:15:23.632Z,35.74
2023-05-23T15:17:51.232Z,36.66
2023-05-23T15:20:18.280Z,36.80
2023-05-23T15:26:33.561Z,36.68
2023-05-23T15:29:00.172Z,36.31
2023-05-23T15:31:27.317Z,38.06
2023-05-23T15:33:53.981Z,37.20
2023-05-23T15:36:20.564Z,36.55
2023-05-23T15:38:47.285Z,37.46
2023-05-23T15:41:34.200Z,36.66
2023-05-23T15:44:00.880Z,37.28
2023-05-23T15:46:27.561Z,37.52
2023-05-23T15:48:54.266Z,36.84
2023-05-23T15:55:36.780Z,36.26
2023-05-23T15:58:03.748Z,35.77
2023-05-23T16:00:30.421Z,34.89
2023-05-23T16:02:57.048Z,35.14
2023-05-23T16:05:23.626Z,35.24
2023-05-23T16:07:50.326Z,34.83
2023-05-23T16:10:17.216Z,34.98
2023-05-23T16:12:43.893Z,35.46
2023-05-23T16:15:10.826Z,35.04
2023-05-23T16:17:37.875Z,35.42
2023-05-23T16:20:05.279Z,36.53
2023-05-23T16:22:31.894Z,36.19
2023-05-23T16:24:58.529Z,36.31
2023-05-23T16:27:25.090Z,35.93
2023-05-23T16:29:51.715Z,36.53
2023-05-23T16:32:18.371Z,37.17
2023-05-23T16:34:49.633Z,36.74
2023-05-23T16:37:19.401Z,36.53
2023-05-23T16:39:46.496Z,36.57
2023-05-23T16:42:13.158Z,36.55
2023-05-23T16:44:39.911Z,36.36
2023-05-23T16:47:09.589Z,36.90
2023-05-23T16:49:36.385Z,37.23
2023-05-23T16:52:03.404Z,37.43
2023-05-23T16:54:29.975Z,37.15
2023-05-23T16:56:57.701Z,37.44
2023-05-23T16:59:24.462Z,37.73
2023-05-23T17:01:51.336Z,37.29
2023-05-23T17:04:20.354Z,37.32
2023-05-23T17:06:54.458Z,38.64
2023-05-23T17:09:24.212Z,38.34
2023-05-23T17:11:51.057Z,38.62
2023-05-23T17:14:17.713Z,38.93
2023-05-23T17:16:44.433Z,38.82
2023-05-23T17:19:11.215Z,39.30
2023-05-23T17:21:37.827Z,39.56
2023-05-23T17:24:04.591Z,39.67
2023-05-23T17:26:31.277Z,39.05
2023-05-23T17:28:57.868Z,38.23
2023-05-23T17:31:24.606Z,39.80
2023-05-23T17:33:51.289Z,41.52
2023-05-23T17:36:18.196Z,41.91
2023-05-23T17:38:44.794Z,44.24
2023-05-23T17:41:11.872Z,45.54
2023-05-23T17:43:39.721Z,46.15
2023-05-23T17:46:07.900Z,47.39
2023-05-23T17:48:47.190Z,47.91
2023-05-23T17:51:15.466Z,48.39
2023-05-23T17:53:42.795Z,49.38
2023-05-23T17:56:10.149Z,49.26
2023-05-23T17:58:39.822Z,50.61
2023-05-23T18:01:08.531Z,50.84
2023-05-23T18:03:38.217Z,52.37
2023-05-23T18:08:33.815Z,53.00
2023-05-23T18:11:00.712Z,53.30
2023-05-23T18:13:27.320Z,52.75
2023-05-23T18:16:07.140Z,52.65
2023-05-23T18:18:34.194Z,52.89
2023-05-23T18:21:10.225Z,52.99
2023-05-23T18:23:41.898Z,52.46
2023-05-23T18:28:57.241Z,51.83
2023-05-23T18:31:23.830Z,51.77
2023-05-23T18:33:50.448Z,51.60
2023-05-23T18:36:17.056Z,51.67
2023-05-23T18:38:43.726Z,52.12
2023-05-23T18:41:13.299Z,52.39
2023-05-23T18:43:41.683Z,52.77
2023-05-23T18:46:08.396Z,53.51
2023-05-23T18:48:36.032Z,53.87
2023-05-23T18:51:03.111Z,53.19
2023-05-23T18:53:31.254Z,53.41
2023-05-23T18:55:57.886Z,52.76
2023-05-23T18:58:24.480Z,52.02
2023-05-23T19:00:51.076Z,51.87
2023-05-23T19:03:17.806Z,51.43
2023-05-23T19:05:44.652Z,50.98
2023-05-23T19:08:11.317Z,51.39
2023-05-23T19:10:37.982Z,52.26
2023-05-23T19:13:05.064Z,51.95
2023-05-23T19:15:32.546Z,52.34
2023-05-23T19:17:59.159Z,52.55
2023-05-23T19:20:27.423Z,52.79
2023-05-23T19:22:54.066Z,52.99
2023-05-23T19:25:21.674Z,53.25
2023-05-23T19:27:48.546Z,54.07
2023-05-23T19:30:15.297Z,55.09
2023-05-23T19:32:41.977Z,54.15
2023-05-23T19:35:08.925Z,55.20
2023-05-23T19:37:35.747Z,55.22
2023-05-23T19:40:02.532Z,56.61
2023-05-23T19:42:29.160Z,56.07
2023-05-23T19:44:55.706Z,56.09
2023-05-23T19:47:22.555Z,56.08
2023-05-23T19:49:49.240Z,56.51
2023-05-23T19:52:16.029Z,56.33
2023-05-23T19:54:42.707Z,56.48
2023-05-23T19:57:09.435Z,57.05
2023-05-23T19:59:36.005Z,56.18
2023-05-23T20:02:02.618Z,56.07
2023-05-23T20:04:29.544Z,55.90
2023-05-23T20:06:56.651Z,55.71
2023-05-23T20:09:23.584Z,55.25
2023-05-23T20:11:50.208Z,55.39
2023-05-23T20:14:16.815Z,55.92
2023-05-23T20:16:43.495Z,56.48
2023-05-23T20:19:10.209Z,56.02
2023-05-23T20:21:36.938Z,56.17
2023-05-23T20:24:03.613Z,57.21
2023-05-23T20:26:30.285Z,58.19
2023-05-23T20:28:56.870Z,57.06
2023-05-23T20:31:23.519Z,57.59
2023-05-23T20:33:50.158Z,57.78
2023-05-23T20:36:19.612Z,58.15
2023-05-23T20:38:46.816Z,58.36
2023-05-23T20:41:14.226Z,58.07
2023-05-23T20:43:41.036Z,58.04
2023-05-23T20:46:09.845Z,57.70
2023-05-23T20:48:36.713Z,57.98
2023-05-23T20:51:05.717Z,58.40
2023-05-23T20:53:32.463Z,58.31
2023-05-23T20:55:59.846Z,58.44
2023-05-23T20:58:50.326Z,59.29
2023-05-23T21:01:17.040Z,59.00
2023-05-23T21:03:43.681Z,58.73
2023-05-23T21:06:10.357Z,59.02
2023-05-23T21:11:18.775Z,59.09
2023-05-23T21:13:47.841Z,59.38
2023-05-23T21:16:14.690Z,59.18
2023-05-23T21:21:23.973Z,59.44
2023-05-23T21:23:54.002Z,59.45
2023-05-23T21:26:45.107Z,59.45
2023-05-23T21:29:15.369Z,59.65
2023-05-23T21:31:42.245Z,59.74
2023-05-23T21:34:22.371Z,59.73
2023-05-23T21:41:09.132Z,59.79
2023-05-23T21:43:40.392Z,59.92
2023-05-23T21:46:07.374Z,60.08
2023-05-23T21:48:33.983Z,60.05
2023-05-23T21:51:02.841Z,60.00
2023-05-23T21:53:29.626Z,59.73
2023-05-23T21:56:20.805Z,59.80
2023-05-23T21:58:48.289Z,59.90
2023-05-23T22:01:15.034Z,59.86
2023-05-23T22:03:41.758Z,59.67
2023-05-23T22:09:51.286Z,59.58
2023-05-23T22:12:19.945Z,59.75
2023-05-23T22:14:47.794Z,59.60
2023-05-23T22:17:14.437Z,59.72
2023-05-23T22:19:41.826Z,59.99
2023-05-23T22:22:09.906Z,59.90
2023-05-23T22:24:39.103Z,59.94
2023-05-23T22:27:09.447Z,60.15
2023-05-23T22:29:38.332Z,60.19
2023-05-23T22:32:05.889Z,60.50
2023-05-23T22:34:32.896Z,60.59
2023-05-23T22:37:00.429Z,60.31
2023-05-23T22:39:52.164Z,60.48
2023-05-23T22:42:19.108Z,60.55
2023-05-23T22:44:47.798Z,61.34
2023-05-23T22:47:16.812Z,61.84
2023-05-23T22:53:43.933Z,62.38
2023-05-23T22:56:10.930Z,62.80
2023-05-23T22:58:46.911Z,63.04
2023-05-23T23:01:31.128Z,63.54
2023-05-23T23:04:03.528Z,63.58
